createdAt,value
2022-10-06T00:01:46.114Z,3.40
2022-10-06T00:04:14.401Z,2.92
2022-10-06T00:06:42.991Z,3.60
2022-10-06T00:09:11.238Z,3.63
2022-10-06T00:11:39.541Z,4.32
2022-10-06T00:14:08.299Z,2.72
2022-10-06T00:16:36.649Z,3.83
2022-10-06T00:19:04.960Z,4.22
2022-10-06T00:21:33.270Z,3.22
2022-10-06T00:24:01.460Z,4.25
2022-10-06T00:26:29.770Z,3.90
2022-10-06T00:28:58.039Z,3.03
2022-10-06T00:31:26.904Z,4.65
2022-10-06T00:33:55.347Z,4.90
2022-10-06T00:36:23.677Z,3.95
2022-10-06T00:38:52.167Z,3.55
2022-10-06T00:41:20.655Z,3.38
2022-10-06T00:43:55.209Z,3.50
2022-10-06T00:46:27.233Z,2.28
2022-10-06T00:49:01.957Z,4.10
2022-10-06T00:51:33.396Z,4.05
2022-10-06T00:54:02.718Z,2.80
2022-10-06T00:56:31.166Z,3.33
2022-10-06T00:59:02.375Z,3.67
2022-10-06T01:01:33.618Z,4.70
2022-10-06T01:04:07.795Z,3.97
2022-10-06T01:06:49.770Z,5.05
2022-10-06T01:09:19.813Z,3.78
2022-10-06T01:11:50.891Z,3.55
2022-10-06T01:14:20.640Z,3.33
2022-10-06T01:16:54.681Z,3.25
2022-10-06T01:19:52.161Z,4.07
2022-10-06T01:22:46.645Z,4.35
2022-10-06T01:25:17.460Z,5.43
2022-10-06T01:27:54.662Z,3.53
2022-10-06T01:30:29.760Z,3.75
2022-10-06T01:32:58.200Z,5.47
2022-10-06T01:35:26.881Z,3.53
2022-10-06T01:37:55.800Z,2.88
2022-10-06T01:40:24.095Z,3.70
2022-10-06T01:42:52.520Z,5.13
2022-10-06T01:45:20.960Z,2.70
2022-10-06T01:47:49.534Z,4.43
2022-10-06T01:50:18.008Z,4.57
2022-10-06T01:52:46.381Z,5.22
2022-10-06T01:55:15.519Z,4.40
2022-10-06T01:57:44.300Z,3.50
2022-10-06T02:00:13.286Z,3.85
2022-10-06T02:02:42.245Z,3.45
2022-10-06T02:05:11.211Z,5.05
2022-10-06T02:07:40.356Z,4.68
2022-10-06T02:10:09.740Z,3.28
2022-10-06T02:12:38.079Z,4.85
2022-10-06T02:15:07.375Z,5.18
2022-10-06T02:17:38.517Z,3.05
2022-10-06T02:20:07.986Z,3.45
2022-10-06T02:22:44.639Z,3.50
2022-10-06T02:25:13.610Z,3.85
2022-10-06T02:27:42.044Z,5.57
2022-10-06T02:30:11.840Z,4.25
2022-10-06T02:32:43.466Z,4.72
2022-10-06T02:35:14.094Z,4.50
2022-10-06T02:37:42.982Z,5.70
2022-10-06T02:40:11.851Z,3.53
2022-10-06T02:42:40.730Z,6.07
2022-10-06T02:45:10.174Z,5.35
2022-10-06T02:47:38.880Z,4.10
2022-10-06T02:50:09.455Z,4.55
2022-10-06T02:52:42.090Z,3.63
2022-10-06T02:55:11.204Z,5.03
2022-10-06T02:57:40.295Z,2.90
2022-10-06T03:00:09.770Z,3.72
2022-10-06T03:02:38.257Z,4.57
2022-10-06T03:05:06.999Z,3.60
2022-10-06T03:07:35.367Z,4.65
2022-10-06T03:10:03.674Z,5.32
2022-10-06T03:12:32.845Z,4.63
2022-10-06T03:15:01.130Z,6.82
2022-10-06T03:17:29.280Z,2.70
2022-10-06T03:19:58.248Z,2.95
2022-10-06T03:22:26.560Z,6.35
2022-10-06T03:24:54.884Z,5.85
2022-10-06T03:27:26.836Z,3.65
2022-10-06T03:29:55.200Z,5.15
2022-10-06T03:32:25.075Z,4.13
2022-10-06T03:34:54.201Z,4.93
2022-10-06T03:37:23.848Z,3.42
2022-10-06T03:39:52.589Z,3.58
2022-10-06T03:42:20.800Z,3.17
2022-10-06T03:44:49.269Z,3.90
2022-10-06T03:47:17.776Z,6.05
2022-10-06T03:49:46.231Z,2.00
2022-10-06T03:52:14.569Z,3.17
2022-10-06T03:54:42.881Z,4.28
2022-10-06T03:57:11.039Z,3.25
2022-10-06T03:59:39.360Z,3.53
2022-10-06T04:02:07.676Z,3.70
2022-10-06T04:04:35.995Z,3.30
2022-10-06T04:07:05.105Z,4.28
2022-10-06T04:09:33.440Z,4.80
2022-10-06T04:12:02.091Z,4.38
2022-10-06T04:14:30.731Z,4.43
2022-10-06T04:16:59.041Z,3.33
2022-10-06T04:19:27.365Z,3.70
2022-10-06T04:21:55.669Z,3.88
2022-10-06T04:24:23.950Z,3.50
2022-10-06T04:26:53.295Z,4.10
2022-10-06T04:29:22.217Z,2.97
2022-10-06T04:31:51.408Z,3.67
2022-10-06T04:34:19.779Z,2.30
2022-10-06T04:36:48.491Z,4.03
2022-10-06T04:39:19.024Z,6.32
2022-10-06T04:41:49.930Z,6.90
2022-10-06T04:44:18.227Z,3.03
2022-10-06T04:46:46.454Z,4.78
2022-10-06T04:49:19.934Z,3.65
2022-10-06T04:51:50.548Z,3.38
2022-10-06T04:54:19.846Z,3.38
2022-10-06T04:56:48.166Z,3.30
2022-10-06T04:59:16.486Z,2.78
2022-10-06T05:01:44.919Z,4.38
2022-10-06T05:04:13.248Z,3.92
2022-10-06T05:06:43.134Z,3.80
2022-10-06T05:09:14.066Z,3.78
2022-10-06T05:11:42.652Z,2.83
2022-10-06T05:14:11.020Z,5.88
2022-10-06T05:16:39.424Z,8.27
2022-10-06T05:19:09.128Z,5.85
2022-10-06T05:21:37.445Z,3.50
2022-10-06T05:24:06.060Z,2.88
2022-10-06T05:26:36.807Z,6.93
2022-10-06T05:29:05.780Z,4.47
2022-10-06T05:31:39.722Z,5.05
2022-10-06T05:34:08.780Z,5.22
2022-10-06T05:36:37.450Z,3.58
2022-10-06T05:39:06.080Z,3.72
2022-10-06T05:41:35.650Z,3.70
2022-10-06T05:44:06.974Z,6.38
2022-10-06T05:46:35.681Z,3.78
2022-10-06T05:49:08.730Z,3.63
2022-10-06T05:51:37.930Z,4.93
2022-10-06T05:54:06.247Z,4.15
2022-10-06T05:56:39.097Z,4.93
2022-10-06T05:59:08.093Z,5.68
2022-10-06T06:01:41.027Z,3.05
2022-10-06T06:04:14.081Z,4.25
2022-10-06T06:06:44.488Z,3.55
2022-10-06T06:09:15.822Z,5.25
2022-10-06T06:11:46.625Z,4.70
2022-10-06T06:14:17.926Z,3.95
2022-10-06T06:16:47.744Z,5.05
2022-10-06T06:19:16.000Z,3.28
2022-10-06T06:21:47.040Z,3.88
2022-10-06T06:24:15.360Z,3.38
2022-10-06T06:26:43.536Z,3.17
2022-10-06T06:29:14.401Z,3.55
2022-10-06T06:31:44.677Z,3.33
2022-10-06T06:34:13.230Z,3.72
2022-10-06T06:36:46.066Z,5.68
2022-10-06T06:39:16.005Z,3.45
2022-10-06T06:41:47.182Z,5.25
2022-10-06T06:44:16.004Z,3.33
2022-10-06T06:46:46.887Z,4.50
2022-10-06T06:49:15.205Z,5.18
2022-10-06T06:51:50.888Z,3.45
2022-10-06T06:54:19.204Z,4.53
2022-10-06T06:56:49.765Z,5.80
2022-10-06T06:59:18.739Z,5.05
2022-10-06T07:01:49.073Z,4.65
2022-10-06T07:04:18.689Z,5.55
2022-10-06T07:06:58.911Z,4.28
2022-10-06T07:09:27.845Z,2.85
2022-10-06T07:11:56.196Z,2.78
2022-10-06T07:14:25.321Z,3.40
2022-10-06T07:17:12.160Z,3.58
2022-10-06T07:19:52.516Z,3.92
2022-10-06T07:22:42.176Z,3.53
2022-10-06T07:25:26.329Z,4.30
2022-10-06T07:27:55.560Z,3.10
2022-10-06T07:30:26.910Z,2.72
2022-10-06T07:32:55.986Z,4.35
2022-10-06T07:35:25.932Z,6.15
2022-10-06T07:37:55.227Z,4.05
2022-10-06T07:40:23.650Z,4.72
2022-10-06T07:42:54.764Z,3.67
2022-10-06T07:45:42.463Z,3.30
2022-10-06T07:48:21.593Z,3.83
2022-10-06T07:50:52.789Z,5.72
2022-10-06T07:53:21.272Z,2.67
2022-10-06T07:55:50.759Z,5.55
2022-10-06T07:58:21.481Z,3.58
2022-10-06T08:00:50.125Z,4.85
2022-10-06T08:03:19.088Z,5.32
2022-10-06T08:05:48.908Z,5.10
2022-10-06T08:08:17.951Z,5.22
2022-10-06T08:10:54.765Z,4.20
2022-10-06T08:13:23.873Z,7.97
2022-10-06T08:15:53.017Z,3.42
2022-10-06T08:18:44.245Z,3.60
2022-10-06T08:21:20.165Z,5.25
2022-10-06T08:23:49.959Z,5.82
2022-10-06T08:26:20.318Z,3.95
2022-10-06T08:28:55.926Z,3.28
2022-10-06T08:31:25.194Z,5.03
2022-10-06T08:33:58.145Z,4.70
2022-10-06T08:36:31.809Z,3.83
2022-10-06T08:39:01.672Z,4.60
2022-10-06T08:41:51.725Z,4.07
2022-10-06T08:44:31.381Z,4.18
2022-10-06T08:47:07.390Z,5.07
2022-10-06T08:49:56.128Z,4.35
2022-10-06T08:52:42.439Z,4.65
2022-10-06T08:55:16.825Z,3.15
2022-10-06T08:58:04.217Z,5.45
2022-10-06T09:00:37.799Z,5.30
2022-10-06T09:03:08.645Z,3.83
2022-10-06T09:05:38.491Z,4.82
2022-10-06T09:08:25.637Z,5.32
2022-10-06T09:11:07.395Z,4.95
2022-10-06T09:14:04.676Z,3.17
2022-10-06T09:16:40.850Z,3.92
2022-10-06T09:19:24.721Z,4.28
2022-10-06T09:21:55.077Z,4.05
2022-10-06T09:24:47.408Z,3.65
2022-10-06T09:27:35.236Z,4.20
2022-10-06T09:30:09.605Z,5.68
2022-10-06T09:32:52.676Z,4.15
2022-10-06T09:35:25.965Z,3.92
2022-10-06T09:38:08.701Z,3.88
2022-10-06T09:40:50.445Z,4.72
2022-10-06T09:43:32.069Z,3.75
2022-10-06T09:46:22.165Z,2.65
2022-10-06T09:49:08.340Z,5.03
2022-10-06T09:51:38.616Z,3.25
2022-10-06T09:54:17.166Z,4.20
2022-10-06T09:56:48.191Z,5.25
2022-10-06T09:59:36.391Z,3.92
2022-10-06T10:02:29.705Z,3.63
2022-10-06T10:04:59.560Z,4.30
2022-10-06T10:07:31.063Z,3.70
2022-10-06T10:10:24.002Z,4.63
2022-10-06T10:12:58.277Z,4.35
2022-10-06T10:15:55.203Z,5.60
2022-10-06T10:18:29.654Z,4.78
2022-10-06T10:21:07.075Z,4.55
2022-10-06T10:23:39.392Z,4.75
2022-10-06T10:26:41.870Z,5.95
2022-10-06T10:29:15.399Z,4.93
2022-10-06T10:31:49.376Z,6.18
2022-10-06T10:34:29.585Z,4.63
2022-10-06T10:37:09.808Z,4.65
2022-10-06T10:40:01.803Z,6.93
2022-10-06T10:43:08.385Z,5.25
2022-10-06T10:45:41.595Z,2.75
2022-10-06T10:48:22.446Z,2.65
2022-10-06T10:51:02.601Z,2.97
2022-10-06T10:53:44.847Z,3.83
2022-10-06T10:56:17.154Z,5.00
2022-10-06T10:58:48.838Z,3.75
2022-10-06T11:01:26.610Z,4.35
2022-10-06T11:03:58.291Z,4.10
2022-10-06T11:06:41.244Z,4.20
2022-10-06T11:09:20.030Z,3.22
2022-10-06T11:12:06.119Z,3.38
2022-10-06T11:14:59.883Z,5.18
2022-10-06T11:17:45.640Z,4.75
2022-10-06T11:20:26.760Z,4.68
2022-10-06T11:23:18.910Z,4.90
2022-10-06T11:26:05.965Z,3.45
2022-10-06T11:28:56.657Z,4.38
2022-10-06T11:31:45.711Z,7.03
2022-10-06T11:34:16.001Z,3.45
2022-10-06T11:37:02.135Z,3.30
2022-10-06T11:39:58.517Z,3.88
2022-10-06T11:42:53.796Z,4.25
2022-10-06T11:45:32.708Z,3.78
2022-10-06T11:48:13.013Z,3.97
2022-10-06T11:50:49.796Z,4.63
2022-10-06T11:53:33.315Z,4.47
2022-10-06T11:56:33.800Z,5.07
2022-10-06T11:59:01.961Z,5.18
2022-10-06T12:01:33.485Z,5.10
2022-10-06T12:04:10.771Z,6.47
2022-10-06T12:06:48.205Z,4.25
2022-10-06T12:09:31.880Z,3.67
2022-10-06T12:12:07.702Z,5.95
2022-10-06T12:18:07.662Z,4.45
2022-10-06T12:21:07.560Z,4.10
2022-10-06T12:23:58.755Z,4.93
2022-10-06T12:26:56.185Z,4.45
2022-10-06T12:29:52.831Z,3.80
2022-10-06T12:32:42.426Z,4.85
2022-10-06T12:35:17.125Z,4.00
2022-10-06T12:37:53.816Z,3.53
2022-10-06T12:40:51.946Z,3.75
2022-10-06T12:43:29.171Z,4.72
2022-10-06T12:45:57.878Z,4.72
2022-10-06T12:48:44.165Z,3.45
2022-10-06T12:51:16.041Z,5.40
2022-10-06T12:53:51.880Z,6.65
2022-10-06T12:56:33.155Z,6.75
2022-10-06T12:59:24.363Z,3.97
2022-10-06T13:01:56.045Z,7.50
2022-10-06T13:04:44.359Z,4.03
2022-10-06T13:07:20.185Z,5.45
2022-10-06T13:09:51.559Z,3.83
2022-10-06T13:12:38.124Z,5.38
2022-10-06T13:15:35.341Z,2.60
2022-10-06T13:18:09.481Z,5.13
2022-10-06T13:20:39.223Z,3.25
2022-10-06T13:23:18.759Z,3.80
2022-10-06T13:25:51.310Z,5.25
2022-10-06T13:28:37.534Z,6.20
2022-10-06T13:31:29.512Z,3.03
2022-10-06T13:34:14.924Z,3.58
2022-10-06T13:36:50.435Z,4.13
2022-10-06T13:39:22.120Z,4.28
2022-10-06T13:42:01.463Z,5.20
2022-10-06T13:44:38.932Z,5.30
2022-10-06T13:47:16.678Z,5.38
2022-10-06T13:49:52.355Z,4.15
2022-10-06T13:52:35.235Z,3.33
2022-10-06T13:55:05.159Z,4.85
2022-10-06T13:57:46.259Z,4.45
2022-10-06T14:00:22.399Z,4.10
2022-10-06T14:02:54.355Z,5.80
2022-10-06T14:05:37.479Z,5.20
2022-10-06T14:08:11.888Z,5.90
2022-10-06T14:10:54.725Z,5.25
2022-10-06T14:13:33.323Z,6.07
2022-10-06T14:16:11.299Z,6.13
2022-10-06T14:18:46.055Z,8.43
2022-10-06T14:21:40.205Z,6.22
2022-10-06T14:24:17.655Z,6.75
2022-10-06T14:26:47.399Z,12.15
2022-10-06T14:29:15.714Z,13.27
2022-10-06T14:31:44.860Z,13.57
2022-10-06T14:34:18.444Z,12.88
2022-10-06T14:36:48.994Z,16.48
2022-10-06T14:39:17.460Z,13.30
2022-10-06T14:41:46.765Z,9.32
2022-10-06T14:44:17.474Z,10.95
2022-10-06T14:46:49.710Z,15.57
2022-10-06T14:49:18.600Z,10.63
2022-10-06T14:51:47.481Z,11.57
2022-10-06T14:54:15.970Z,13.60
2022-10-06T14:56:44.517Z,10.30
2022-10-06T14:59:17.634Z,11.15
2022-10-06T15:01:46.751Z,11.02
2022-10-06T15:04:17.653Z,12.77
2022-10-06T15:07:04.367Z,12.18
2022-10-06T15:09:32.835Z,13.45
2022-10-06T15:12:01.788Z,10.15
2022-10-06T15:14:30.606Z,13.77
2022-10-06T15:17:02.595Z,11.48
2022-10-06T15:19:30.812Z,11.20
2022-10-06T15:21:59.235Z,10.57
2022-10-06T15:24:27.882Z,14.73
2022-10-06T15:27:14.760Z,13.23
2022-10-06T15:29:43.394Z,13.40
2022-10-06T15:32:11.722Z,18.10
2022-10-06T15:34:40.372Z,19.45
2022-10-06T15:37:08.834Z,20.42
2022-10-06T15:39:38.924Z,19.83
2022-10-06T15:42:09.604Z,15.13
2022-10-06T15:44:38.263Z,17.85
2022-10-06T15:47:08.632Z,16.42
2022-10-06T15:49:41.466Z,19.20
2022-10-06T15:52:14.120Z,18.92
2022-10-06T15:54:42.915Z,17.10
2022-10-06T15:57:16.581Z,15.68
2022-10-06T15:59:47.955Z,16.77
2022-10-06T16:02:17.976Z,19.60
2022-10-06T16:05:00.183Z,20.85
2022-10-06T16:07:29.798Z,18.08
2022-10-06T16:09:58.134Z,20.38
2022-10-06T16:12:29.320Z,17.10
2022-10-06T16:14:57.602Z,18.60
2022-10-06T16:17:25.903Z,17.83
2022-10-06T16:19:54.245Z,16.88
2022-10-06T16:22:22.731Z,16.88
2022-10-06T16:24:51.722Z,17.08
2022-10-06T16:27:20.041Z,14.68
2022-10-06T16:29:48.513Z,17.77
2022-10-06T16:32:18.121Z,17.17
2022-10-06T16:34:51.240Z,18.00
2022-10-06T16:37:19.565Z,16.75
2022-10-06T16:39:47.860Z,18.70
2022-10-06T16:42:16.305Z,19.48
2022-10-06T16:44:44.515Z,19.15
2022-10-06T16:47:15.721Z,19.98
2022-10-06T16:49:44.675Z,18.58
2022-10-06T16:52:15.241Z,17.48
2022-10-06T16:54:43.571Z,18.95
2022-10-06T16:57:11.803Z,17.67
2022-10-06T16:59:43.200Z,19.08
2022-10-06T17:02:14.815Z,18.38
2022-10-06T17:04:43.205Z,21.80
2022-10-06T17:07:11.395Z,18.75
2022-10-06T17:09:46.954Z,17.02
2022-10-06T17:12:24.200Z,23.33
2022-10-06T17:14:52.649Z,20.65
2022-10-06T17:17:20.835Z,21.05
2022-10-06T17:19:49.160Z,21.40
2022-10-06T17:22:17.467Z,22.08
2022-10-06T17:24:48.168Z,17.83
2022-10-06T17:27:16.381Z,21.77
2022-10-06T17:29:45.460Z,21.38
2022-10-06T17:32:13.725Z,23.15
2022-10-06T17:34:41.996Z,20.77
2022-10-06T17:37:10.165Z,23.48
2022-10-06T17:39:38.407Z,18.98
2022-10-06T17:42:07.080Z,18.20
2022-10-06T17:44:35.563Z,23.13
2022-10-06T17:47:04.180Z,22.75
2022-10-06T17:49:35.505Z,18.98
2022-10-06T17:52:03.820Z,20.30
2022-10-06T17:54:35.396Z,22.15
2022-10-06T17:57:03.730Z,20.50
2022-10-06T17:59:32.896Z,19.35
2022-10-06T18:02:03.685Z,20.88
2022-10-06T18:04:32.186Z,17.13
2022-10-06T18:07:00.936Z,18.77
2022-10-06T18:09:29.189Z,22.00
2022-10-06T18:11:59.565Z,17.60
2022-10-06T18:14:36.045Z,17.10
2022-10-06T18:17:04.921Z,19.92
2022-10-06T18:19:35.996Z,22.20
2022-10-06T18:22:11.030Z,19.83
2022-10-06T18:24:41.001Z,21.58
2022-10-06T18:27:09.676Z,17.98
2022-10-06T18:29:39.717Z,15.38
2022-10-06T18:33:26.889Z,22.75
2022-10-06T18:37:46.495Z,18.55
2022-10-06T18:40:15.571Z,19.60
2022-10-06T18:42:43.898Z,23.35
2022-10-06T18:45:35.475Z,20.38
2022-10-06T18:48:25.214Z,20.40
2022-10-06T18:51:03.503Z,19.58
2022-10-06T18:53:37.312Z,19.25
2022-10-06T18:56:07.901Z,18.27
2022-10-06T18:58:40.841Z,18.45
2022-10-06T19:01:09.832Z,19.88
2022-10-06T19:03:38.437Z,18.23
2022-10-06T19:06:07.079Z,20.23
2022-10-06T19:08:35.396Z,18.05
2022-10-06T19:11:23.895Z,20.60
2022-10-06T19:13:54.421Z,21.30
2022-10-06T19:16:22.997Z,20.27
2022-10-06T19:18:51.405Z,19.15
2022-10-06T19:21:19.720Z,20.55
2022-10-06T19:23:48.050Z,16.25
2022-10-06T19:26:16.422Z,15.35
2022-10-06T19:28:44.645Z,15.57
2022-10-06T19:31:20.847Z,14.32
2022-10-06T19:33:50.119Z,14.23
2022-10-06T19:36:19.245Z,15.55
2022-10-06T19:38:48.181Z,14.95
2022-10-06T19:41:35.035Z,14.57
2022-10-06T19:44:04.515Z,12.40
2022-10-06T19:46:32.985Z,14.75
2022-10-06T19:49:06.445Z,13.15
2022-10-06T19:51:37.641Z,13.60
2022-10-06T19:54:06.135Z,13.15
2022-10-06T19:56:34.607Z,12.38
2022-10-06T19:59:05.300Z,10.95
2022-10-06T20:01:34.469Z,19.30
2022-10-06T20:04:05.049Z,10.82
2022-10-06T20:06:36.513Z,12.77
2022-10-06T20:09:09.950Z,13.93
2022-10-06T20:11:40.295Z,11.30
2022-10-06T20:14:14.808Z,12.18
2022-10-06T20:16:47.469Z,12.80
2022-10-06T20:19:15.799Z,13.30
2022-10-06T20:21:44.515Z,10.70
2022-10-06T20:24:15.237Z,11.98
2022-10-06T20:26:47.936Z,12.55
2022-10-06T20:29:19.880Z,14.43
2022-10-06T20:31:51.075Z,9.50
2022-10-06T20:34:22.925Z,10.15
2022-10-06T20:36:55.700Z,11.23
2022-10-06T20:39:43.875Z,12.48
2022-10-06T20:42:15.205Z,11.23
2022-10-06T20:44:45.127Z,9.98
2022-10-06T20:47:14.116Z,11.45
2022-10-06T20:49:45.585Z,9.50
2022-10-06T20:52:16.836Z,10.10
2022-10-06T20:54:45.120Z,9.95
2022-10-06T20:57:14.060Z,12.40
2022-10-06T20:59:42.721Z,11.10
2022-10-06T21:02:12.038Z,11.95
2022-10-06T21:04:44.403Z,10.45
2022-10-06T21:07:13.008Z,11.63
2022-10-06T21:09:41.314Z,8.55
2022-10-06T21:12:09.644Z,13.27
2022-10-06T21:14:38.654Z,7.53
2022-10-06T21:17:09.619Z,8.60
2022-10-06T21:19:38.761Z,7.53
2022-10-06T21:22:07.399Z,5.90
2022-10-06T21:24:35.891Z,5.93
2022-10-06T21:27:04.196Z,5.20
2022-10-06T21:29:32.525Z,6.03
2022-10-06T21:32:01.324Z,12.43
2022-10-06T21:34:29.521Z,6.20
2022-10-06T21:36:58.331Z,4.72
2022-10-06T21:39:26.598Z,8.73
2022-10-06T21:41:54.926Z,6.93
2022-10-06T21:44:23.179Z,5.60
2022-10-06T21:46:57.594Z,7.55
2022-10-06T21:49:26.919Z,6.35
2022-10-06T21:51:57.174Z,8.35
2022-10-06T21:54:27.984Z,4.85
2022-10-06T21:56:56.354Z,5.00
2022-10-06T21:59:24.519Z,6.40
2022-10-06T22:01:52.896Z,5.30
2022-10-06T22:04:21.173Z,5.05
2022-10-06T22:06:51.555Z,4.57
2022-10-06T22:09:21.491Z,6.38
2022-10-06T22:11:50.902Z,4.55
2022-10-06T22:14:21.478Z,5.18
2022-10-06T22:16:50.149Z,3.67
2022-10-06T22:19:18.880Z,4.55
2022-10-06T22:21:52.204Z,6.95
2022-10-06T22:24:22.602Z,3.35
2022-10-06T22:26:51.413Z,3.95
2022-10-06T22:29:21.119Z,5.07
2022-10-06T22:31:50.083Z,4.03
2022-10-06T22:34:21.473Z,5.63
2022-10-06T22:36:49.805Z,4.03
2022-10-06T22:39:18.923Z,4.47
2022-10-06T22:41:47.395Z,4.80
2022-10-06T22:44:15.731Z,7.22
2022-10-06T22:46:44.179Z,4.38
2022-10-06T22:49:12.646Z,3.30
2022-10-06T22:51:40.998Z,3.55
2022-10-06T22:54:09.314Z,3.33
2022-10-06T22:56:37.653Z,4.47
2022-10-06T22:59:06.084Z,3.53
2022-10-06T23:01:34.435Z,3.42
2022-10-06T23:04:02.723Z,4.25
2022-10-06T23:06:32.348Z,4.50
2022-10-06T23:09:00.998Z,4.38
2022-10-06T23:11:29.487Z,4.15
2022-10-06T23:13:57.799Z,3.63
2022-10-06T23:16:26.337Z,4.53
2022-10-06T23:18:55.998Z,4.00
2022-10-06T23:21:28.192Z,4.15
2022-10-06T23:23:59.918Z,5.57
2022-10-06T23:26:30.268Z,4.95
2022-10-06T23:29:00.858Z,6.95
2022-10-06T23:31:30.177Z,3.88
2022-10-06T23:33:58.926Z,4.35
2022-10-06T23:36:27.357Z,4.35
2022-10-06T23:38:56.746Z,5.53
2022-10-06T23:41:25.142Z,3.67
2022-10-06T23:43:53.498Z,4.55
2022-10-06T23:46:22.080Z,5.45
2022-10-06T23:48:50.418Z,4.88
2022-10-06T23:51:18.757Z,4.20
2022-10-06T23:53:47.822Z,4.45
2022-10-06T23:56:16.193Z,4.68
2022-10-06T23:58:44.683Z,5.10
